sensor_id;sensor_type;location;lat;lon;timestamp;P1;durP1;ratioP1;P2;durP2;ratioP2
75171;SDS011;63750;52.418;20.742;2023-05-29T00:02:23;15.40;;;11.60;;
75171;SDS011;63750;52.418;20.742;2023-05-29T00:04:50;12.20;;;10.80;;
75171;SDS011;63750;52.418;20.742;2023-05-29T00:07:18;12.40;;;11.10;;
75171;SDS011;63750;52.418;20.742;2023-05-29T00:09:45;16.30;;;11.80;;
75171;SDS011;63750;52.418;20.742;2023-05-29T00:12:11;13.40;;;11.40;;
75171;SDS011;63750;52.418;20.742;2023-05-29T00:14:38;12.80;;;11.20;;
75171;SDS011;63750;52.418;20.742;2023-05-29T00:17:06;13.50;;;9.80;;
75171;SDS011;63750;52.418;20.742;2023-05-29T00:19:33;11.30;;;8.40;;
75171;SDS011;63750;52.418;20.742;2023-05-29T00:22:00;10.50;;;8.30;;
75171;SDS011;63750;52.418;20.742;2023-05-29T00:24:27;7.90;;;7.10;;
75171;SDS011;63750;52.418;20.742;2023-05-29T00:26:54;12.70;;;7.60;;
75171;SDS011;63750;52.418;20.742;2023-05-29T00:29:21;10.10;;;7.90;;
75171;SDS011;63750;52.418;20.742;2023-05-29T00:31:48;9.60;;;7.50;;
75171;SDS011;63750;52.418;20.742;2023-05-29T00:34:16;9.90;;;6.90;;
75171;SDS011;63750;52.418;20.742;2023-05-29T00:36:43;8.40;;;6.70;;
75171;SDS011;63750;52.418;20.742;2023-05-29T00:39:10;10.30;;;7.80;;
75171;SDS011;63750;52.418;20.742;2023-05-29T00:41:37;10.70;;;8.20;;
75171;SDS011;63750;52.418;20.742;2023-05-29T00:44:05;9.40;;;7.40;;
75171;SDS011;63750;52.418;20.742;2023-05-29T00:46:32;11.80;;;7.80;;
75171;SDS011;63750;52.418;20.742;2023-05-29T00:49:00;11.90;;;8.10;;
75171;SDS011;63750;52.418;20.742;2023-05-29T00:51:30;9.90;;;8.20;;
75171;SDS011;63750;52.418;20.742;2023-05-29T00:53:57;10.80;;;7.80;;
75171;SDS011;63750;52.418;20.742;2023-05-29T00:56:25;11.40;;;8.30;;
75171;SDS011;63750;52.418;20.742;2023-05-29T00:58:52;10.60;;;7.70;;
75171;SDS011;63750;52.418;20.742;2023-05-29T01:01:20;10.00;;;7.70;;
75171;SDS011;63750;52.418;20.742;2023-05-29T01:03:47;12.40;;;8.40;;
75171;SDS011;63750;52.418;20.742;2023-05-29T01:06:14;9.90;;;7.80;;
75171;SDS011;63750;52.418;20.742;2023-05-29T01:08:42;11.30;;;8.00;;
75171;SDS011;63750;52.418;20.742;2023-05-29T01:11:11;11.40;;;7.80;;
75171;SDS011;63750;52.418;20.742;2023-05-29T01:13:54;10.10;;;7.40;;
75171;SDS011;63750;52.418;20.742;2023-05-29T01:16:26;11.70;;;7.50;;
75171;SDS011;63750;52.418;20.742;2023-05-29T01:19:08;10.20;;;7.10;;
75171;SDS011;63750;52.418;20.742;2023-05-29T01:21:49;8.60;;;6.40;;
75171;SDS011;63750;52.418;20.742;2023-05-29T01:24:26;9.10;;;6.80;;
75171;SDS011;63750;52.418;20.742;2023-05-29T01:27:03;8.10;;;6.10;;
75171;SDS011;63750;52.418;20.742;2023-05-29T01:29:34;8.50;;;7.00;;
75171;SDS011;63750;52.418;20.742;2023-05-29T01:32:03;8.60;;;6.80;;
75171;SDS011;63750;52.418;20.742;2023-05-29T01:34:32;8.20;;;6.60;;
75171;SDS011;63750;52.418;20.742;2023-05-29T01:36:59;7.60;;;6.10;;
75171;SDS011;63750;52.418;20.742;2023-05-29T01:39:27;9.60;;;6.50;;
75171;SDS011;63750;52.418;20.742;2023-05-29T01:41:55;9.50;;;6.50;;
75171;SDS011;63750;52.418;20.742;2023-05-29T01:44:24;10.30;;;6.90;;
75171;SDS011;63750;52.418;20.742;2023-05-29T01:46:51;8.20;;;6.10;;
75171;SDS011;63750;52.418;20.742;2023-05-29T01:49:19;7.00;;;6.30;;
75171;SDS011;63750;52.418;20.742;2023-05-29T01:51:49;6.90;;;6.20;;
75171;SDS011;63750;52.418;20.742;2023-05-29T01:54:17;8.60;;;6.30;;
75171;SDS011;63750;52.418;20.742;2023-05-29T01:56:44;11.70;;;6.70;;
75171;SDS011;63750;52.418;20.742;2023-05-29T01:59:11;8.20;;;6.80;;
75171;SDS011;63750;52.418;20.742;2023-05-29T02:01:39;10.90;;;7.30;;
75171;SDS011;63750;52.418;20.742;2023-05-29T02:04:07;9.80;;;6.60;;
75171;SDS011;63750;52.418;20.742;2023-05-29T02:06:34;7.70;;;6.90;;
75171;SDS011;63750;52.418;20.742;2023-05-29T02:09:01;7.60;;;6.70;;
75171;SDS011;63750;52.418;20.742;2023-05-29T02:11:28;9.40;;;7.70;;
75171;SDS011;63750;52.418;20.742;2023-05-29T02:13:56;9.70;;;7.20;;
75171;SDS011;63750;52.418;20.742;2023-05-29T02:16:23;8.60;;;7.50;;
75171;SDS011;63750;52.418;20.742;2023-05-29T02:18:50;9.50;;;7.80;;
75171;SDS011;63750;52.418;20.742;2023-05-29T02:21:17;8.60;;;7.20;;
75171;SDS011;63750;52.418;20.742;2023-05-29T02:23:44;9.10;;;7.40;;
75171;SDS011;63750;52.418;20.742;2023-05-29T02:26:11;12.00;;;8.20;;
75171;SDS011;63750;52.418;20.742;2023-05-29T02:28:38;9.10;;;7.80;;
75171;SDS011;63750;52.418;20.742;2023-05-29T02:31:06;9.40;;;6.70;;
75171;SDS011;63750;52.418;20.742;2023-05-29T02:33:33;10.40;;;6.80;;
75171;SDS011;63750;52.418;20.742;2023-05-29T02:36:00;9.40;;;7.00;;
75171;SDS011;63750;52.418;20.742;2023-05-29T02:38:27;8.60;;;6.90;;
75171;SDS011;63750;52.418;20.742;2023-05-29T02:40:55;9.60;;;7.40;;
75171;SDS011;63750;52.418;20.742;2023-05-29T02:43:22;9.40;;;8.00;;
75171;SDS011;63750;52.418;20.742;2023-05-29T02:45:49;10.40;;;8.70;;
75171;SDS011;63750;52.418;20.742;2023-05-29T02:48:16;10.70;;;8.10;;
75171;SDS011;63750;52.418;20.742;2023-05-29T02:50:43;10.50;;;8.70;;
75171;SDS011;63750;52.418;20.742;2023-05-29T02:53:10;9.60;;;7.70;;
75171;SDS011;63750;52.418;20.742;2023-05-29T02:55:37;12.80;;;9.10;;
75171;SDS011;63750;52.418;20.742;2023-05-29T02:58:04;10.00;;;8.20;;
75171;SDS011;63750;52.418;20.742;2023-05-29T03:00:31;12.50;;;9.10;;
75171;SDS011;63750;52.418;20.742;2023-05-29T03:02:58;11.20;;;9.30;;
75171;SDS011;63750;52.418;20.742;2023-05-29T03:05:25;11.30;;;9.00;;
75171;SDS011;63750;52.418;20.742;2023-05-29T03:07:53;13.20;;;9.20;;
75171;SDS011;63750;52.418;20.742;2023-05-29T03:10:20;12.90;;;9.00;;
75171;SDS011;63750;52.418;20.742;2023-05-29T03:12:47;10.90;;;9.40;;
75171;SDS011;63750;52.418;20.742;2023-05-29T03:15:14;10.90;;;8.90;;
75171;SDS011;63750;52.418;20.742;2023-05-29T03:17:41;12.70;;;9.80;;
75171;SDS011;63750;52.418;20.742;2023-05-29T03:20:10;12.90;;;10.20;;
75171;SDS011;63750;52.418;20.742;2023-05-29T03:22:38;14.00;;;10.70;;
75171;SDS011;63750;52.418;20.742;2023-05-29T03:25:05;12.20;;;10.10;;
75171;SDS011;63750;52.418;20.742;2023-05-29T03:27:33;13.70;;;9.60;;
75171;SDS011;63750;52.418;20.742;2023-05-29T03:30:00;11.80;;;10.00;;
75171;SDS011;63750;52.418;20.742;2023-05-29T03:32:27;14.10;;;10.30;;
75171;SDS011;63750;52.418;20.742;2023-05-29T03:34:54;13.30;;;10.50;;
75171;SDS011;63750;52.418;20.742;2023-05-29T03:37:21;12.30;;;10.10;;
75171;SDS011;63750;52.418;20.742;2023-05-29T03:39:48;11.40;;;9.30;;
75171;SDS011;63750;52.418;20.742;2023-05-29T03:42:14;12.90;;;9.40;;
75171;SDS011;63750;52.418;20.742;2023-05-29T03:44:42;11.20;;;9.20;;
75171;SDS011;63750;52.418;20.742;2023-05-29T03:47:09;14.40;;;9.80;;
75171;SDS011;63750;52.418;20.742;2023-05-29T03:49:36;11.00;;;8.90;;
75171;SDS011;63750;52.418;20.742;2023-05-29T03:52:03;14.50;;;9.40;;
75171;SDS011;63750;52.418;20.742;2023-05-29T03:54:32;12.10;;;8.90;;
75171;SDS011;63750;52.418;20.742;2023-05-29T03:56:59;9.80;;;8.80;;
75171;SDS011;63750;52.418;20.742;2023-05-29T03:59:26;12.40;;;9.20;;
75171;SDS011;63750;52.418;20.742;2023-05-29T04:01:53;10.70;;;9.50;;
75171;SDS011;63750;52.418;20.742;2023-05-29T04:04:20;10.40;;;9.10;;
75171;SDS011;63750;52.418;20.742;2023-05-29T04:06:47;15.70;;;8.70;;
75171;SDS011;63750;52.418;20.742;2023-05-29T04:09:14;11.00;;;9.00;;
75171;SDS011;63750;52.418;20.742;2023-05-29T04:11:42;10.10;;;9.00;;
75171;SDS011;63750;52.418;20.742;2023-05-29T04:14:09;12.00;;;9.30;;
75171;SDS011;63750;52.418;20.742;2023-05-29T04:16:36;11.60;;;9.30;;
75171;SDS011;63750;52.418;20.742;2023-05-29T04:19:03;12.20;;;8.70;;
75171;SDS011;63750;52.418;20.742;2023-05-29T04:21:30;11.90;;;9.10;;
75171;SDS011;63750;52.418;20.742;2023-05-29T04:23:58;11.90;;;9.70;;
75171;SDS011;63750;52.418;20.742;2023-05-29T04:26:25;15.10;;;9.30;;
75171;SDS011;63750;52.418;20.742;2023-05-29T04:28:52;13.20;;;9.60;;
75171;SDS011;63750;52.418;20.742;2023-05-29T04:31:20;15.70;;;11.90;;
75171;SDS011;63750;52.418;20.742;2023-05-29T04:33:47;14.50;;;12.60;;
75171;SDS011;63750;52.418;20.742;2023-05-29T04:36:13;13.80;;;12.30;;
75171;SDS011;63750;52.418;20.742;2023-05-29T04:38:41;20.70;;;15.40;;
75171;SDS011;63750;52.418;20.742;2023-05-29T04:41:08;16.80;;;12.70;;
75171;SDS011;63750;52.418;20.742;2023-05-29T04:43:34;18.60;;;13.60;;
75171;SDS011;63750;52.418;20.742;2023-05-29T04:46:02;14.90;;;12.80;;
75171;SDS011;63750;52.418;20.742;2023-05-29T04:48:29;16.70;;;12.60;;
75171;SDS011;63750;52.418;20.742;2023-05-29T04:50:55;17.10;;;12.50;;
75171;SDS011;63750;52.418;20.742;2023-05-29T04:53:23;16.80;;;12.80;;
75171;SDS011;63750;52.418;20.742;2023-05-29T04:55:50;16.70;;;12.10;;
75171;SDS011;63750;52.418;20.742;2023-05-29T04:58:17;14.70;;;10.70;;
75171;SDS011;63750;52.418;20.742;2023-05-29T05:00:43;14.40;;;11.20;;
75171;SDS011;63750;52.418;20.742;2023-05-29T05:03:10;14.50;;;12.60;;
75171;SDS011;63750;52.418;20.742;2023-05-29T05:05:38;13.40;;;9.60;;
75171;SDS011;63750;52.418;20.742;2023-05-29T05:08:05;11.90;;;9.40;;
75171;SDS011;63750;52.418;20.742;2023-05-29T05:10:32;12.90;;;10.70;;
75171;SDS011;63750;52.418;20.742;2023-05-29T05:12:59;14.10;;;9.60;;
75171;SDS011;63750;52.418;20.742;2023-05-29T05:15:26;14.60;;;11.60;;
75171;SDS011;63750;52.418;20.742;2023-05-29T05:17:53;12.70;;;10.00;;
75171;SDS011;63750;52.418;20.742;2023-05-29T05:20:20;11.80;;;9.50;;
75171;SDS011;63750;52.418;20.742;2023-05-29T05:22:47;9.50;;;8.50;;
75171;SDS011;63750;52.418;20.742;2023-05-29T05:25:14;12.50;;;9.20;;
75171;SDS011;63750;52.418;20.742;2023-05-29T05:27:41;12.40;;;9.20;;
75171;SDS011;63750;52.418;20.742;2023-05-29T05:30:09;10.40;;;7.70;;
75171;SDS011;63750;52.418;20.742;2023-05-29T05:32:37;14.40;;;9.30;;
75171;SDS011;63750;52.418;20.742;2023-05-29T05:35:05;11.10;;;8.50;;
75171;SDS011;63750;52.418;20.742;2023-05-29T05:37:33;11.10;;;8.40;;
75171;SDS011;63750;52.418;20.742;2023-05-29T05:40:00;10.60;;;7.60;;
75171;SDS011;63750;52.418;20.742;2023-05-29T05:42:26;10.80;;;7.40;;
75171;SDS011;63750;52.418;20.742;2023-05-29T05:44:54;11.00;;;7.40;;
75171;SDS011;63750;52.418;20.742;2023-05-29T05:47:21;8.50;;;7.50;;
75171;SDS011;63750;52.418;20.742;2023-05-29T05:49:48;11.20;;;8.00;;
75171;SDS011;63750;52.418;20.742;2023-05-29T05:52:15;14.50;;;9.30;;
75171;SDS011;63750;52.418;20.742;2023-05-29T05:54:43;12.40;;;8.80;;
75171;SDS011;63750;52.418;20.742;2023-05-29T05:57:10;14.50;;;8.20;;
75171;SDS011;63750;52.418;20.742;2023-05-29T05:59:38;14.10;;;8.70;;
75171;SDS011;63750;52.418;20.742;2023-05-29T06:02:05;11.80;;;8.40;;
75171;SDS011;63750;52.418;20.742;2023-05-29T06:04:32;11.60;;;7.30;;
75171;SDS011;63750;52.418;20.742;2023-05-29T06:07:00;11.60;;;7.00;;
75171;SDS011;63750;52.418;20.742;2023-05-29T06:09:27;10.80;;;6.30;;
75171;SDS011;63750;52.418;20.742;2023-05-29T06:11:54;6.80;;;6.00;;
75171;SDS011;63750;52.418;20.742;2023-05-29T06:14:21;8.20;;;6.00;;
75171;SDS011;63750;52.418;20.742;2023-05-29T06:16:49;9.40;;;5.70;;
75171;SDS011;63750;52.418;20.742;2023-05-29T06:19:16;8.00;;;5.30;;
75171;SDS011;63750;52.418;20.742;2023-05-29T06:21:43;6.50;;;5.90;;
75171;SDS011;63750;52.418;20.742;2023-05-29T06:24:10;6.40;;;5.40;;
75171;SDS011;63750;52.418;20.742;2023-05-29T06:26:38;6.80;;;5.40;;
75171;SDS011;63750;52.418;20.742;2023-05-29T06:29:05;7.00;;;5.40;;
75171;SDS011;63750;52.418;20.742;2023-05-29T06:31:32;5.10;;;4.60;;
75171;SDS011;63750;52.418;20.742;2023-05-29T06:33:59;5.70;;;5.20;;
75171;SDS011;63750;52.418;20.742;2023-05-29T06:36:26;6.90;;;5.20;;
75171;SDS011;63750;52.418;20.742;2023-05-29T06:38:53;6.40;;;5.30;;
75171;SDS011;63750;52.418;20.742;2023-05-29T06:41:20;5.30;;;4.70;;
75171;SDS011;63750;52.418;20.742;2023-05-29T06:43:47;5.90;;;5.00;;
75171;SDS011;63750;52.418;20.742;2023-05-29T06:46:15;6.80;;;5.40;;
75171;SDS011;63750;52.418;20.742;2023-05-29T06:48:42;8.90;;;5.70;;
75171;SDS011;63750;52.418;20.742;2023-05-29T06:51:09;6.70;;;6.00;;
75171;SDS011;63750;52.418;20.742;2023-05-29T06:53:37;8.60;;;6.10;;
75171;SDS011;63750;52.418;20.742;2023-05-29T06:56:04;7.80;;;4.90;;
75171;SDS011;63750;52.418;20.742;2023-05-29T06:58:32;7.70;;;5.20;;
75171;SDS011;63750;52.418;20.742;2023-05-29T07:01:00;7.90;;;4.60;;
75171;SDS011;63750;52.418;20.742;2023-05-29T07:03:27;7.60;;;4.60;;
75171;SDS011;63750;52.418;20.742;2023-05-29T07:05:55;7.50;;;4.10;;
75171;SDS011;63750;52.418;20.742;2023-05-29T07:08:22;5.70;;;3.90;;
75171;SDS011;63750;52.418;20.742;2023-05-29T07:10:50;6.30;;;4.00;;
75171;SDS011;63750;52.418;20.742;2023-05-29T07:13:17;4.70;;;3.70;;
75171;SDS011;63750;52.418;20.742;2023-05-29T07:15:45;7.30;;;3.70;;
75171;SDS011;63750;52.418;20.742;2023-05-29T07:18:14;6.20;;;3.60;;
75171;SDS011;63750;52.418;20.742;2023-05-29T07:20:41;5.90;;;3.60;;
75171;SDS011;63750;52.418;20.742;2023-05-29T07:23:08;6.60;;;3.30;;
75171;SDS011;63750;52.418;20.742;2023-05-29T07:25:36;5.10;;;3.00;;
75171;SDS011;63750;52.418;20.742;2023-05-29T07:28:03;7.10;;;3.30;;
75171;SDS011;63750;52.418;20.742;2023-05-29T07:30:29;8.30;;;3.70;;
75171;SDS011;63750;52.418;20.742;2023-05-29T07:32:57;5.80;;;3.60;;
75171;SDS011;63750;52.418;20.742;2023-05-29T07:35:24;4.40;;;3.30;;
75171;SDS011;63750;52.418;20.742;2023-05-29T07:37:51;7.70;;;3.40;;
75171;SDS011;63750;52.418;20.742;2023-05-29T07:40:18;5.20;;;3.50;;
75171;SDS011;63750;52.418;20.742;2023-05-29T07:42:45;5.70;;;3.20;;
75171;SDS011;63750;52.418;20.742;2023-05-29T07:45:13;5.40;;;3.20;;
75171;SDS011;63750;52.418;20.742;2023-05-29T07:47:40;4.90;;;3.30;;
75171;SDS011;63750;52.418;20.742;2023-05-29T07:50:08;5.10;;;3.20;;
75171;SDS011;63750;52.418;20.742;2023-05-29T07:52:37;9.00;;;3.60;;
75171;SDS011;63750;52.418;20.742;2023-05-29T07:55:04;7.40;;;3.00;;
75171;SDS011;63750;52.418;20.742;2023-05-29T07:57:32;5.80;;;3.30;;
75171;SDS011;63750;52.418;20.742;2023-05-29T07:59:59;5.60;;;3.10;;
75171;SDS011;63750;52.418;20.742;2023-05-29T08:02:26;5.40;;;3.20;;
75171;SDS011;63750;52.418;20.742;2023-05-29T08:04:53;6.80;;;3.40;;
75171;SDS011;63750;52.418;20.742;2023-05-29T08:07:20;4.40;;;2.80;;
75171;SDS011;63750;52.418;20.742;2023-05-29T08:09:47;7.10;;;3.30;;
75171;SDS011;63750;52.418;20.742;2023-05-29T08:12:15;5.50;;;3.60;;
75171;SDS011;63750;52.418;20.742;2023-05-29T08:14:42;3.90;;;2.90;;
75171;SDS011;63750;52.418;20.742;2023-05-29T08:17:09;6.80;;;3.10;;
75171;SDS011;63750;52.418;20.742;2023-05-29T08:19:36;4.70;;;3.10;;
75171;SDS011;63750;52.418;20.742;2023-05-29T08:22:03;7.00;;;3.00;;
75171;SDS011;63750;52.418;20.742;2023-05-29T08:24:30;5.20;;;3.10;;
75171;SDS011;63750;52.418;20.742;2023-05-29T08:26:57;4.10;;;2.70;;
75171;SDS011;63750;52.418;20.742;2023-05-29T08:29:24;4.50;;;2.60;;
75171;SDS011;63750;52.418;20.742;2023-05-29T08:31:51;3.40;;;2.50;;
75171;SDS011;63750;52.418;20.742;2023-05-29T08:34:18;4.30;;;3.10;;
75171;SDS011;63750;52.418;20.742;2023-05-29T08:36:45;4.40;;;2.80;;
75171;SDS011;63750;52.418;20.742;2023-05-29T08:39:12;4.50;;;2.60;;
75171;SDS011;63750;52.418;20.742;2023-05-29T08:41:41;7.90;;;3.50;;
75171;SDS011;63750;52.418;20.742;2023-05-29T08:44:14;3.80;;;3.20;;
75171;SDS011;63750;52.418;20.742;2023-05-29T08:46:47;3.30;;;2.80;;
75171;SDS011;63750;52.418;20.742;2023-05-29T08:49:17;5.20;;;3.00;;
75171;SDS011;63750;52.418;20.742;2023-05-29T08:51:48;5.40;;;2.90;;
75171;SDS011;63750;52.418;20.742;2023-05-29T08:54:23;4.20;;;2.80;;
75171;SDS011;63750;52.418;20.742;2023-05-29T08:56:51;4.80;;;3.10;;
75171;SDS011;63750;52.418;20.742;2023-05-29T08:59:19;4.00;;;2.50;;
75171;SDS011;63750;52.418;20.742;2023-05-29T09:01:47;4.20;;;2.90;;
75171;SDS011;63750;52.418;20.742;2023-05-29T09:04:14;4.20;;;3.00;;
75171;SDS011;63750;52.418;20.742;2023-05-29T09:06:41;6.20;;;3.20;;
75171;SDS011;63750;52.418;20.742;2023-05-29T09:09:10;3.70;;;2.70;;
75171;SDS011;63750;52.418;20.742;2023-05-29T09:11:37;4.10;;;3.10;;
75171;SDS011;63750;52.418;20.742;2023-05-29T09:14:04;6.20;;;3.30;;
75171;SDS011;63750;52.418;20.742;2023-05-29T09:16:31;6.10;;;3.50;;
75171;SDS011;63750;52.418;20.742;2023-05-29T09:19:07;4.20;;;2.60;;
75171;SDS011;63750;52.418;20.742;2023-05-29T09:21:34;5.80;;;2.80;;
75171;SDS011;63750;52.418;20.742;2023-05-29T09:24:04;4.60;;;3.40;;
75171;SDS011;63750;52.418;20.742;2023-05-29T09:26:32;5.70;;;3.10;;
75171;SDS011;63750;52.418;20.742;2023-05-29T09:28:59;5.10;;;3.10;;
75171;SDS011;63750;52.418;20.742;2023-05-29T09:31:27;3.30;;;2.50;;
75171;SDS011;63750;52.418;20.742;2023-05-29T09:33:54;4.30;;;3.30;;
75171;SDS011;63750;52.418;20.742;2023-05-29T09:36:27;5.50;;;3.00;;
75171;SDS011;63750;52.418;20.742;2023-05-29T09:38:54;3.10;;;2.90;;
75171;SDS011;63750;52.418;20.742;2023-05-29T09:41:21;3.50;;;2.90;;
75171;SDS011;63750;52.418;20.742;2023-05-29T09:43:49;5.40;;;3.00;;
75171;SDS011;63750;52.418;20.742;2023-05-29T09:46:16;5.40;;;3.10;;
75171;SDS011;63750;52.418;20.742;2023-05-29T09:48:43;3.90;;;3.00;;
75171;SDS011;63750;52.418;20.742;2023-05-29T09:51:19;7.60;;;3.40;;
75171;SDS011;63750;52.418;20.742;2023-05-29T09:53:47;4.40;;;3.00;;
75171;SDS011;63750;52.418;20.742;2023-05-29T09:56:14;3.20;;;2.90;;
75171;SDS011;63750;52.418;20.742;2023-05-29T09:58:42;3.40;;;2.90;;
75171;SDS011;63750;52.418;20.742;2023-05-29T10:01:10;8.50;;;6.10;;
75171;SDS011;63750;52.418;20.742;2023-05-29T10:03:37;6.60;;;3.60;;
75171;SDS011;63750;52.418;20.742;2023-05-29T10:06:04;5.70;;;3.20;;
75171;SDS011;63750;52.418;20.742;2023-05-29T10:08:33;4.80;;;2.90;;
75171;SDS011;63750;52.418;20.742;2023-05-29T10:11:03;6.30;;;5.30;;
75171;SDS011;63750;52.418;20.742;2023-05-29T10:13:32;4.30;;;3.00;;
75171;SDS011;63750;52.418;20.742;2023-05-29T10:16:02;5.30;;;2.80;;
75171;SDS011;63750;52.418;20.742;2023-05-29T10:18:34;3.90;;;3.00;;
75171;SDS011;63750;52.418;20.742;2023-05-29T10:21:03;4.80;;;3.40;;
75171;SDS011;63750;52.418;20.742;2023-05-29T10:23:33;6.20;;;3.40;;
75171;SDS011;63750;52.418;20.742;2023-05-29T10:26:04;4.10;;;2.90;;
75171;SDS011;63750;52.418;20.742;2023-05-29T10:28:36;4.90;;;3.40;;
75171;SDS011;63750;52.418;20.742;2023-05-29T10:31:13;5.40;;;2.90;;
75171;SDS011;63750;52.418;20.742;2023-05-29T10:33:50;4.10;;;2.90;;
75171;SDS011;63750;52.418;20.742;2023-05-29T10:36:30;4.00;;;3.20;;
75171;SDS011;63750;52.418;20.742;2023-05-29T10:39:03;6.80;;;3.60;;
75171;SDS011;63750;52.418;20.742;2023-05-29T10:41:31;4.80;;;3.00;;
75171;SDS011;63750;52.418;20.742;2023-05-29T10:43:58;4.20;;;2.80;;
75171;SDS011;63750;52.418;20.742;2023-05-29T10:49:25;4.20;;;3.00;;
75171;SDS011;63750;52.418;20.742;2023-05-29T10:51:53;5.20;;;3.50;;
75171;SDS011;63750;52.418;20.742;2023-05-29T10:54:21;5.20;;;3.20;;
75171;SDS011;63750;52.418;20.742;2023-05-29T10:56:52;5.30;;;3.90;;
75171;SDS011;63750;52.418;20.742;2023-05-29T10:59:21;4.00;;;2.80;;
75171;SDS011;63750;52.418;20.742;2023-05-29T11:01:48;4.40;;;2.90;;
75171;SDS011;63750;52.418;20.742;2023-05-29T11:04:28;4.20;;;2.80;;
75171;SDS011;63750;52.418;20.742;2023-05-29T11:06:55;5.90;;;3.00;;
75171;SDS011;63750;52.418;20.742;2023-05-29T11:09:29;5.40;;;3.40;;
75171;SDS011;63750;52.418;20.742;2023-05-29T11:12:17;4.50;;;3.20;;
75171;SDS011;63750;52.418;20.742;2023-05-29T11:14:53;4.70;;;3.10;;
75171;SDS011;63750;52.418;20.742;2023-05-29T11:17:43;5.30;;;3.00;;
75171;SDS011;63750;52.418;20.742;2023-05-29T11:20:16;5.70;;;3.20;;
75171;SDS011;63750;52.418;20.742;2023-05-29T11:23:00;4.40;;;3.00;;
75171;SDS011;63750;52.418;20.742;2023-05-29T11:25:29;5.30;;;3.40;;
75171;SDS011;63750;52.418;20.742;2023-05-29T11:27:59;5.50;;;3.00;;
75171;SDS011;63750;52.418;20.742;2023-05-29T11:30:26;3.60;;;3.00;;
75171;SDS011;63750;52.418;20.742;2023-05-29T11:32:53;3.30;;;2.80;;
75171;SDS011;63750;52.418;20.742;2023-05-29T11:35:25;4.30;;;3.10;;
75171;SDS011;63750;52.418;20.742;2023-05-29T11:37:55;4.90;;;3.00;;
75171;SDS011;63750;52.418;20.742;2023-05-29T11:40:23;7.30;;;3.70;;
75171;SDS011;63750;52.418;20.742;2023-05-29T11:42:50;12.10;;;4.30;;
75171;SDS011;63750;52.418;20.742;2023-05-29T11:45:18;3.60;;;3.20;;
75171;SDS011;63750;52.418;20.742;2023-05-29T11:47:53;9.00;;;3.50;;
75171;SDS011;63750;52.418;20.742;2023-05-29T11:50:22;4.70;;;3.40;;
75171;SDS011;63750;52.418;20.742;2023-05-29T11:52:50;3.60;;;3.00;;
75171;SDS011;63750;52.418;20.742;2023-05-29T11:55:18;5.70;;;3.40;;
75171;SDS011;63750;52.418;20.742;2023-05-29T11:57:45;4.70;;;2.80;;
75171;SDS011;63750;52.418;20.742;2023-05-29T12:00:14;4.00;;;2.90;;
75171;SDS011;63750;52.418;20.742;2023-05-29T12:02:42;5.10;;;2.80;;
75171;SDS011;63750;52.418;20.742;2023-05-29T12:05:09;3.40;;;2.80;;
75171;SDS011;63750;52.418;20.742;2023-05-29T12:07:37;5.10;;;2.80;;
75171;SDS011;63750;52.418;20.742;2023-05-29T12:10:10;3.20;;;2.80;;
75171;SDS011;63750;52.418;20.742;2023-05-29T12:12:38;4.30;;;3.20;;
75171;SDS011;63750;52.418;20.742;2023-05-29T12:15:07;5.50;;;3.00;;
75171;SDS011;63750;52.418;20.742;2023-05-29T12:17:35;8.00;;;3.70;;
75171;SDS011;63750;52.418;20.742;2023-05-29T12:20:03;4.50;;;3.10;;
75171;SDS011;63750;52.418;20.742;2023-05-29T12:22:32;3.60;;;2.90;;
75171;SDS011;63750;52.418;20.742;2023-05-29T12:25:04;12.00;;;4.00;;
75171;SDS011;63750;52.418;20.742;2023-05-29T12:27:33;3.10;;;2.80;;
75171;SDS011;63750;52.418;20.742;2023-05-29T12:30:01;4.00;;;2.80;;
75171;SDS011;63750;52.418;20.742;2023-05-29T12:32:34;3.60;;;3.00;;
75171;SDS011;63750;52.418;20.742;2023-05-29T12:35:02;5.70;;;2.70;;
75171;SDS011;63750;52.418;20.742;2023-05-29T12:37:41;3.60;;;2.90;;
75171;SDS011;63750;52.418;20.742;2023-05-29T12:40:13;4.90;;;3.00;;
75171;SDS011;63750;52.418;20.742;2023-05-29T12:42:41;3.90;;;3.00;;
75171;SDS011;63750;52.418;20.742;2023-05-29T12:45:09;4.10;;;2.90;;
75171;SDS011;63750;52.418;20.742;2023-05-29T12:47:37;3.70;;;2.80;;
75171;SDS011;63750;52.418;20.742;2023-05-29T12:50:20;5.20;;;3.30;;
75171;SDS011;63750;52.418;20.742;2023-05-29T12:52:55;4.50;;;3.50;;
75171;SDS011;63750;52.418;20.742;2023-05-29T12:55:24;5.80;;;3.40;;
75171;SDS011;63750;52.418;20.742;2023-05-29T12:57:52;3.30;;;3.00;;
75171;SDS011;63750;52.418;20.742;2023-05-29T13:00:19;4.10;;;3.00;;
75171;SDS011;63750;52.418;20.742;2023-05-29T13:02:48;3.80;;;3.30;;
75171;SDS011;63750;52.418;20.742;2023-05-29T13:05:15;7.50;;;3.70;;
75171;SDS011;63750;52.418;20.742;2023-05-29T13:07:42;5.80;;;2.90;;
75171;SDS011;63750;52.418;20.742;2023-05-29T13:10:10;4.80;;;3.20;;
75171;SDS011;63750;52.418;20.742;2023-05-29T13:12:37;8.60;;;3.40;;
75171;SDS011;63750;52.418;20.742;2023-05-29T13:15:07;4.40;;;3.30;;
75171;SDS011;63750;52.418;20.742;2023-05-29T13:17:35;4.00;;;3.00;;
75171;SDS011;63750;52.418;20.742;2023-05-29T13:20:03;4.80;;;3.70;;
75171;SDS011;63750;52.418;20.742;2023-05-29T13:22:31;5.40;;;3.30;;
75171;SDS011;63750;52.418;20.742;2023-05-29T13:24:58;5.00;;;3.40;;
75171;SDS011;63750;52.418;20.742;2023-05-29T13:27:26;3.90;;;3.20;;
75171;SDS011;63750;52.418;20.742;2023-05-29T13:29:53;4.10;;;3.60;;
75171;SDS011;63750;52.418;20.742;2023-05-29T13:32:20;6.30;;;3.40;;
75171;SDS011;63750;52.418;20.742;2023-05-29T13:34:47;5.10;;;3.50;;
75171;SDS011;63750;52.418;20.742;2023-05-29T13:37:14;3.40;;;3.10;;
75171;SDS011;63750;52.418;20.742;2023-05-29T13:39:41;6.20;;;3.70;;
75171;SDS011;63750;52.418;20.742;2023-05-29T13:42:08;4.50;;;3.60;;
75171;SDS011;63750;52.418;20.742;2023-05-29T13:44:36;4.30;;;3.10;;
75171;SDS011;63750;52.418;20.742;2023-05-29T13:47:04;3.70;;;3.30;;
75171;SDS011;63750;52.418;20.742;2023-05-29T13:49:32;5.20;;;3.70;;
75171;SDS011;63750;52.418;20.742;2023-05-29T13:51:59;4.80;;;3.40;;
75171;SDS011;63750;52.418;20.742;2023-05-29T13:54:28;4.50;;;3.30;;
75171;SDS011;63750;52.418;20.742;2023-05-29T13:56:55;4.30;;;3.30;;
75171;SDS011;63750;52.418;20.742;2023-05-29T13:59:23;4.80;;;3.20;;
75171;SDS011;63750;52.418;20.742;2023-05-29T14:01:50;4.80;;;3.20;;
75171;SDS011;63750;52.418;20.742;2023-05-29T14:04:17;5.90;;;3.60;;
75171;SDS011;63750;52.418;20.742;2023-05-29T14:06:44;4.30;;;3.30;;
75171;SDS011;63750;52.418;20.742;2023-05-29T14:09:11;4.00;;;3.60;;
75171;SDS011;63750;52.418;20.742;2023-05-29T14:11:39;3.90;;;3.20;;
75171;SDS011;63750;52.418;20.742;2023-05-29T14:14:06;4.80;;;3.40;;
75171;SDS011;63750;52.418;20.742;2023-05-29T14:16:33;4.50;;;3.40;;
75171;SDS011;63750;52.418;20.742;2023-05-29T14:19:00;5.70;;;3.70;;
75171;SDS011;63750;52.418;20.742;2023-05-29T14:21:28;5.50;;;3.40;;
75171;SDS011;63750;52.418;20.742;2023-05-29T14:23:55;3.90;;;3.40;;
75171;SDS011;63750;52.418;20.742;2023-05-29T14:26:22;5.80;;;3.10;;
75171;SDS011;63750;52.418;20.742;2023-05-29T14:28:49;6.60;;;3.90;;
75171;SDS011;63750;52.418;20.742;2023-05-29T14:31:16;6.60;;;4.00;;
75171;SDS011;63750;52.418;20.742;2023-05-29T14:33:43;5.90;;;3.60;;
75171;SDS011;63750;52.418;20.742;2023-05-29T14:36:11;5.70;;;3.40;;
75171;SDS011;63750;52.418;20.742;2023-05-29T14:38:38;5.00;;;3.60;;